Pagrindinis puslapis
METAR-TAF:

METAR-TAF

Oro uostai :

Rarotongos tarptautinis oro uostas

Rarotonga, Kuko Salos

platuma: 21-12S, ilguma: 159-49W, Aukštis: 7 m

Dabartinis oras

Ataskaita buvo paskelbta 39 minutes, ne 08:30 UTC
Vėjas 9 kt iš Pietvakarių, svyruoja nuo Pietų ir Vakarų
Temperatūra 22°C
Drėgmė 57%
Slėgis 1014 hPa
Matomumas 10 km arba daugiau

METAR: NCRG 180830Z AUTO 22009KT 180V270 9999 FEW037/// BKN047/// 22/13 Q1014

Laikas: 23:09 (09:09 UTC)

Prognozė

Ataskaita buvo paskelbta 4 valandos ir 2 minutes, ne 05:07 UTC
Prognozė galioja nuo 18 metu 06 UTC su 19 metu 06 UTC
Vėjas 8 kt iš Pietvakarių
Matomumas 10 km arba daugiau
Išsisklaidę debesys ne aukštis 2500 ft
Išsisklaidę debesys ne aukštis 10000 ft

TAF: NCRG 180507Z 1806/1906 22008KT 9999 SCT025 SCT100

Orai ataskaitas ir orų prognozės (METAR, TAF).

turimą stotys yra geltonos ir raudonos taškus žemėlapyje.

Perkelti pele per norėdami pamatyti stoties vardą.

Tada spustelėkite, norėdami matyti oro stebėjimo ir prognozės.

Norėdami pakeisti žemėlapį: spustelėkite ant žalios mygtukų su juodo kryžiaus žemyn,; žalią mygtuką su brūkšneliu, jei norite nutolinti; arba žalių rodyklių gretimoms žemėlapius.


METAR-TAF: